MET'MAP v2.0
soon released !

Expected late october,
this new version will be
more efficient, smarter,
and hosted on a brand new
server x3 powerfull...
...and still free !


Not compatible ?
Try the mobile version !

LOG IN : | Subscribe | Disclaimer | Who is Orbifly ? |
ICAO code :

TAF - EKEB Esbjerg - 17 Feb 2020 16:04 UTC - Data Source NOAA   


- Airport Elevation : 97 ft
- IATA code : EBJ
- No reported NOTAMs.


EKEB - Esbjerg

Latest METAR recorded : 2015/08/11 07:50 EKEB 110750Z AUTO 16006KT 110V210 9999NDV NCD 19/15 Q1017
TAF TAF EKEB
Valid from the 17 at 15:00 until the 17 at 23:00 UTC


171410Z 1715/1723 24025KT 9999 BKN030
TEMPO 1715/1717 24028G40KT SHRA SCT020CB
BECMG 1717/1719 24015KT
TEMPO 1719/1723 24015G25KT FEW020CB

Source NOAA


MET'MAP, your aeronautical weather chart ! - Copyright ORBIFLY December 2007

Programming & Development : Alexandra Zaïnal
Co-Developer : Marc-Olivier Méhu
Technical & hardware support : Manuel Goepfert
Concept & Financing : Baudouin d'Aumeries